Latest Weather Observations for Hunters Hill

IDV60801

Issued at 12:05 am EST Tuesday 29 July 2014 (issued every 30 minutes, with the page automatically refreshed every 10 minutes)

About weather observations | Map of weather stations | Latest weather observations for VIC | Other Formats
Station Details ID: 082139 Name: HUNTERS HILL Lat: -36.21 Lon: 147.54 Height: 981.0 m
Data from the previous 72 hours. | See also: Recent months at Hunters Hill
Date/Time
EST
Temp
°C
App
Temp
°C
Dew
Point
Rel
Hum
%
Delta-T
°C
Wind Press
QNH
hPa
Press
MSL
hPa
Rain
since 9 am
mm
Dir
 
Spd
km/h
Gust
km/h
Spd
kts
Gust
kts
29/12:00am 6.4 3.2 3.2 80 1.4 N 9 20 5 11 - - 0.0
 
Date/Time
EST
Temp
°C
App
Temp
°C
Dew
Point
Rel
Hum
%
Delta-T
°C
Wind Press
QNH
hPa
Press
MSL
hPa
Rain
since 9 am
mm
Dir
 
Spd
km/h
Gust
km/h
Spd
kts
Gust
kts
28/11:30pm 6.5 3.4 3.8 83 1.2 N 9 17 5 9 - - 0.0
28/11:00pm 6.2 3.3 4.5 89 0.8 N 9 17 5 9 - - 0.0
28/10:30pm 6.2 3.7 4.8 91 0.6 NNE 7 15 4 8 - - 0.0
28/10:00pm 5.8 3.4 5.4 97 0.2 NNW 7 13 4 7 - - 0.0
28/09:30pm 6.0 2.9 5.6 97 0.2 N 11 20 6 11 - - 0.0
28/09:00pm 5.7 3.0 5.6 99 0.0 NNW 9 17 5 9 - - 0.0
28/08:30pm 5.8 3.5 5.7 99 0.0 N 7 11 4 6 - - 0.0
28/08:00pm 6.0 3.7 5.7 98 0.1 N 7 15 4 8 - - 0.0
28/07:30pm 5.3 3.1 5.3 100 0.0 NNW 6 7 3 4 - - 0.0
28/07:00pm 5.3 3.1 5.3 100 0.0 NNW 6 9 3 5 - - 0.0
28/06:30pm 5.6 3.4 5.5 99 0.0 NNW 6 13 3 7 - - 0.0
28/06:00pm 5.7 3.6 5.6 99 0.0 NNW 6 9 3 5 - - 0.0
28/05:30pm 5.5 3.3 5.4 99 0.0 NNW 6 7 3 4 - - 0.0
28/05:00pm 5.9 4.2 5.8 99 0.0 NNW 4 9 2 5 - - 0.0
28/04:30pm 7.0 5.2 5.5 90 0.7 NNW 4 7 2 4 - - 0.0
28/04:00pm 8.4 6.0 5.2 80 1.5 NNW 7 13 4 7 - - 0.0
28/03:30pm 9.7 7.0 3.9 67 2.7 WNW 7 20 4 11 - - 0.0
28/03:00pm 9.0 6.0 4.2 72 2.2 WNW 9 19 5 10 - - 0.0
28/02:30pm 8.6 6.3 4.6 76 1.9 NW 6 15 3 8 - - 0.0
28/02:00pm 8.6 6.1 5.0 78 1.7 N 7 15 4 8 - - 0.0
28/01:30pm 8.1 6.6 6.7 91 0.7 N 4 7 2 4 - - 0.0
28/01:00pm 7.0 4.6 5.2 88 0.8 N 7 15 4 8 - - 0.0
28/12:30pm 7.9 5.7 5.2 83 1.3 N 6 11 3 6 - - 0.0
28/12:00pm 7.2 5.0 5.5 89 0.8 N 6 13 3 7 - - 0.0
28/11:30am 6.3 3.9 5.1 92 0.6 N 7 15 4 8 - - 0.0
28/11:00am 5.9 3.6 5.8 99 0.0 N 7 13 4 7 - - 0.0
28/10:30am 6.0 3.7 5.9 99 0.0 N 7 13 4 7 - - 0.0
28/10:00am 4.8 2.3 4.8 100 0.0 NNW 7 11 4 6 - - 0.0
28/09:30am 4.8 2.9 4.8 100 0.0 NNW 4 7 2 4 - - 0.0
28/09:00am 4.4 2.4 4.4 100 0.0 NNW 4 7 2 4 - - 0.0
28/08:30am 4.1 2.0 4.1 100 0.0 NNW 4 7 2 4 - - 0.0
28/08:00am 3.8 2.1 3.8 100 0.0 NNW 2 4 1 2 - - 0.0
28/07:30am 3.5 1.3 3.5 100 0.0 NNW 4 7 2 4 - - 0.0
28/07:00am 3.4 1.2 3.4 100 0.0 NNW 4 7 2 4 - - 0.0
28/06:30am 2.9 1.4 2.9 100 0.0 CALM 0 0 0 0 - - 0.0
28/06:00am 3.2 1.4 3.2 100 0.0 NNW 2 4 1 2 - - 0.0
28/05:30am 3.3 1.9 3.3 100 0.0 CALM 0 2 0 1 - - 0.0
28/05:00am 3.5 1.7 3.5 100 0.0 NNW 2 7 1 4 - - 0.0
28/04:30am 3.3 1.9 3.3 100 0.0 CALM 0 2 0 1 - - 0.0
28/04:00am 3.3 1.9 3.3 100 0.0 CALM 0 0 0 0 - - 0.0
28/03:30am 3.6 1.4 3.6 100 0.0 NNW 4 6 2 3 - - 0.0
28/03:00am 3.7 1.6 3.7 100 0.0 NNW 4 6 2 3 - - 0.0
28/02:30am 3.9 2.2 3.9 100 0.0 NNW 2 4 1 2 - - 0.0
28/02:00am 4.0 1.9 3.9 99 0.0 NNW 4 4 2 2 - - 0.0
28/01:30am 4.2 2.1 3.9 98 0.1 NNW 4 9 2 5 - - 0.0
28/01:00am 4.2 1.8 4.1 99 0.0 NNW 6 9 3 5 - - 0.0
28/12:30am 4.2 2.1 3.9 98 0.1 W 4 7 2 4 - - 0.0
28/12:00am 4.5 2.5 4.2 98 0.1 W 4 7 2 4 - - 0.0
 
Date/Time
EST
Temp
°C
App
Temp
°C
Dew
Point
Rel
Hum
%
Delta-T
°C
Wind Press
QNH
hPa
Press
MSL
hPa
Rain
since 9 am
mm
Dir
 
Spd
km/h
Gust
km/h
Spd
kts
Gust
kts
27/11:30pm 3.9 1.4 3.8 99 0.0 W 6 9 3 5 - - 0.0
27/11:00pm 4.2 2.1 4.1 99 0.0 W 4 6 2 3 - - 0.0
27/10:30pm 4.0 2.3 3.9 99 0.0 W 2 6 1 3 - - 0.0
27/10:00pm 3.9 1.8 3.8 99 0.0 W 4 4 2 2 - - 0.0
27/09:30pm 3.8 1.7 3.8 100 0.0 W 4 7 2 4 - - 0.0
27/09:00pm 3.9 1.8 3.9 100 0.0 W 4 7 2 4 - - 0.0
27/08:30pm 4.1 1.5 4.1 100 0.0 W 7 13 4 7 - - 0.0
27/08:00pm 3.9 1.4 3.9 100 0.0 W 6 13 3 7 - - 0.0
27/07:30pm 4.2 2.2 4.2 100 0.0 NW 4 7 2 4 - - 0.0
27/07:00pm 4.6 2.6 4.6 100 0.0 NW 4 7 2 4 - - 0.0
27/06:30pm 4.8 2.9 4.8 100 0.0 NW 4 6 2 3 - - 0.0
27/06:00pm 4.8 2.9 4.8 100 0.0 NW 4 7 2 4 - - 0.0
27/05:30pm 5.0 3.1 5.0 100 0.0 NW 4 7 2 4 - - 0.0
27/05:00pm 5.2 3.4 5.2 100 0.0 NW 4 7 2 4 - - 0.0
27/04:30pm 6.1 3.9 5.4 95 0.3 NW 6 13 3 7 - - 0.0
27/04:00pm 6.9 4.7 5.5 91 0.7 NW 6 9 3 5 - - 0.0
27/03:30pm 7.0 5.2 5.6 91 0.7 WSW 4 11 2 6 - - 0.0
27/03:00pm 7.2 5.4 5.5 89 0.8 WSW 4 7 2 4 - - 0.0
27/02:30pm 7.2 5.5 5.7 90 0.7 WSW 4 9 2 5 - - 0.0
27/02:00pm 8.1 6.0 5.7 85 1.1 WSW 6 9 3 5 - - 0.0
27/01:30pm 6.5 4.3 5.1 91 0.7 WSW 6 9 3 5 - - 0.0
27/01:00pm 6.5 4.2 5.0 90 0.7 WSW 6 11 3 6 - - 0.0
27/12:30pm 6.4 4.2 5.4 93 0.5 WSW 6 11 3 6 - - 0.0
27/12:00pm 7.2 5.1 6.5 95 0.3 W 7 15 4 8 - - 0.0
27/11:30am 7.1 4.9 6.4 95 0.3 W 7 17 4 9 - - 0.0
27/11:00am 6.9 5.4 6.6 98 0.1 WSW 4 7 2 4 - - 0.0
27/10:30am 6.3 5.1 6.3 100 0.0 WSW 2 4 1 2 - - 0.0
27/10:00am 4.9 3.0 4.9 100 0.0 WSW 4 7 2 4 - - 0.0
27/09:30am 4.8 2.9 4.8 100 0.0 WSW 4 4 2 2 - - 0.0
27/09:00am 4.7 3.1 4.7 100 0.0 WSW 2 4 1 2 - - 0.2
27/08:30am 5.0 3.9 5.0 100 0.0 CALM 0 0 0 0 - - 0.2
27/08:00am 4.5 3.3 4.5 100 0.0 CALM 0 0 0 0 - - 0.2
27/07:30am 4.7 3.5 4.7 100 0.0 CALM 0 4 0 2 - - 0.2
27/07:00am 4.8 3.3 4.8 100 0.0 WSW 2 7 1 4 - - 0.2
27/06:30am 4.9 2.6 4.9 100 0.0 WSW 6 11 3 6 - - 0.2
27/06:00am 4.7 2.4 4.7 100 0.0 WSW 6 7 3 4 - - 0.2
27/05:30am 5.0 3.1 5.0 100 0.0 WSW 4 9 2 5 - - 0.2
27/05:00am 5.1 3.6 5.1 100 0.0 WSW 2 6 1 3 - - 0.2
27/04:30am 5.1 3.2 5.1 100 0.0 WSW 4 9 2 5 - - 0.2
27/04:00am 5.0 2.7 5.0 100 0.0 WSW 6 13 3 7 - - 0.2
27/03:30am 5.0 2.7 5.0 100 0.0 SW 6 7 3 4 - - 0.2
27/03:00am 5.1 2.9 5.1 100 0.0 WSW 6 9 3 5 - - 0.2
27/02:30am 5.2 2.8 5.2 100 0.0 W 7 11 4 6 - - 0.2
27/02:00am 5.2 2.8 5.2 100 0.0 W 7 11 4 6 - - 0.2
27/01:30am 5.1 2.7 5.1 100 0.0 W 7 11 4 6 - - 0.2
27/01:00am 5.1 2.3 5.1 100 0.0 W 9 13 5 7 - - 0.2
27/12:30am 5.0 2.5 5.0 100 0.0 W 7 11 4 6 - - 0.2
27/12:00am 4.9 2.0 4.9 100 0.0 WSW 9 15 5 8 - - 0.2
 
Date/Time
EST
Temp
°C
App
Temp
°C
Dew
Point
Rel
Hum
%
Delta-T
°C
Wind Press
QNH
hPa
Press
MSL
hPa
Rain
since 9 am
mm
Dir
 
Spd
km/h
Gust
km/h
Spd
kts
Gust
kts
26/11:30pm 4.8 1.9 4.8 100 0.0 WSW 9 17 5 9 - - 0.2
26/11:00pm 4.8 1.9 4.8 100 0.0 W 9 15 5 8 - - 0.2
26/10:30pm 5.1 2.7 5.1 100 0.0 W 7 11 4 6 - - 0.2
26/10:00pm 5.4 2.7 5.4 100 0.0 WSW 9 19 5 10 - - 0.2
26/09:30pm 5.6 3.3 5.6 100 0.0 W 7 13 4 7 - - 0.2
26/09:00pm 5.6 3.5 5.6 100 0.0 WNW 6 11 3 6 - - 0.2
26/08:30pm 5.6 3.5 5.6 100 0.0 W 6 11 3 6 - - 0.2
26/08:00pm 5.5 3.3 5.5 100 0.0 W 6 9 3 5 - - 0.2
26/07:30pm 5.5 2.8 5.5 100 0.0 W 9 15 5 8 - - 0.2
26/07:00pm 5.7 3.0 5.7 100 0.0 W 9 17 5 9 - - 0.2
26/06:30pm 5.6 2.5 5.6 100 0.0 W 11 22 6 12 - - 0.2
26/06:00pm 5.5 1.6 5.5 100 0.0 W 15 24 8 13 - - 0.2
26/05:30pm 5.3 2.5 5.3 100 0.0 WSW 9 17 5 9 - - 0.2
26/05:00pm 5.4 3.0 5.4 100 0.0 W 7 17 4 9 - - 0.2
26/04:30pm 5.9 3.3 5.9 100 0.0 WSW 9 19 5 10 - - 0.0
26/04:00pm 6.2 4.0 6.2 100 0.0 W 7 17 4 9 - - 0.0
26/03:30pm 6.3 3.7 6.3 100 0.0 W 9 17 5 9 - - 0.0
26/03:00pm 6.5 4.3 6.4 99 0.0 W 7 17 4 9 - - 0.0
26/02:30pm 6.8 4.3 6.7 99 0.0 W 9 19 5 10 - - 0.0
26/02:00pm 6.6 4.1 6.6 100 0.0 WNW 9 17 5 9 - - 0.0
26/01:30pm 7.0 5.2 7.0 100 0.0 WNW 6 13 3 7 - - 0.0
26/01:00pm 6.3 4.1 6.3 100 0.0 W 7 13 4 7 - - 0.0
26/12:30pm 6.6 4.5 6.6 100 0.0 W 7 15 4 8 - - 0.0
26/12:00pm 6.7 4.8 6.7 100 0.0 W 6 11 3 6 - - 0.0
26/11:30am 6.1 4.4 6.1 100 0.0 W 4 7 2 4 - - 0.0
26/11:00am 6.4 4.4 6.4 100 0.0 W 6 11 3 6 - - 0.0
26/10:30am 6.1 4.4 6.1 100 0.0 W 4 6 2 3 - - 0.0
26/10:00am 6.0 4.3 6.0 100 0.0 W 4 7 2 4 - - 0.0
26/09:30am 5.6 3.8 5.6 100 0.0 W 4 6 2 3 - - 0.0
26/09:00am 5.7 4.0 5.7 100 0.0 W 4 6 2 3 - - 0.4
26/08:30am 5.0 3.1 5.0 100 0.0 W 4 6 2 3 - - 0.4
26/08:00am 5.3 3.5 5.3 100 0.0 W 4 7 2 4 - - 0.4
26/07:30am 5.0 3.1 5.0 100 0.0 W 4 6 2 3 - - 0.4
26/07:00am 5.0 3.1 5.0 100 0.0 W 4 7 2 4 - - 0.4
26/06:30am 4.9 2.6 4.9 100 0.0 W 6 7 3 4 - - 0.4
26/06:00am 4.7 2.8 4.7 100 0.0 W 4 7 2 4 - - 0.4
26/05:30am 4.5 2.5 4.5 100 0.0 W 4 6 2 3 - - 0.4
26/05:00am 5.1 2.9 5.1 100 0.0 W 6 9 3 5 - - 0.4
26/04:30am 5.2 3.4 5.2 100 0.0 W 4 7 2 4 - - 0.2
26/04:00am 5.4 3.0 5.3 99 0.0 W 7 13 4 7 - - 0.2
26/03:30am 5.6 3.3 5.6 100 0.0 W 7 13 4 7 - - 0.2
26/03:00am 5.6 3.5 5.6 100 0.0 W 6 13 3 7 - - 0.2
26/02:30am 6.5 4.7 5.5 93 0.5 NNW 4 7 2 4 - - 0.0
26/02:00am 6.4 4.2 5.5 94 0.4 NNW 6 9 3 5 - - 0.0
26/01:30am 6.5 4.3 5.1 91 0.7 NNW 6 7 3 4 - - 0.0
26/01:00am 6.4 4.2 5.2 92 0.6 NNW 6 9 3 5 - - 0.0
26/12:30am 6.6 4.4 5.1 90 0.7 NNW 6 9 3 5 - - 0.0

Other Formats:

Comma delimited format used in spreadsheet applications
http://www.bom.gov.au/fwo/IDV60801/IDV60801.94878.axf

JavaScript Object Notation format (JSON) in row-major order
http://www.bom.gov.au/fwo/IDV60801/IDV60801.94878.json